Flight Track Log - Related Links

Times and Time Zones

All times are in EDT time to prevent confusion due to time zone crossing. See the ASQ6041 flight status page for this flight to view local times or setup timezone preferences in your user account.

Time Position Orientation Groundspeed Altitude Reporting Facility
EDT Latitude Longitude Course Direction KTS km/h feet Rate Location/Type
Sat 12:35:00 39.9000 -104.6833 85° East 196 364 7.100  Level Denver TRACON
Sat 12:36:00 39.9667 -104.6333 30° Northeast 253 468 9.200 1.429 Climbing Denver TRACON
Sat 12:37:00 39.9285 -104.2537 90° East  Level Estimated
Sat 12:37:06 40.0333 -104.5500 44° Northeast 329 610 10.100  Level Denver TRACON
Sat 12:38:00 39.9504 -104.1136 90° East  Level Estimated
Sat 12:38:00 40.0500 -104.4500 78° East 376 697 10.000  Level Denver TRACON
Sat 12:39:00 39.9722 -103.9735 72° East  Level Estimated
Sat 12:39:12 40.0092 -104.2892 108° East 373 690 11.300  Level Denver Center
Sat 12:40:00 39.9938 -103.8333 85° East  Level Estimated
Sat 12:40:14 39.9792 -104.1569 106° East 380 703 12.200  Level Denver Center
Sat 12:41:16 39.9456 -104.0103 107° East 391 724 14.300 1.839 Climbing Denver Center
Sat 12:42:18 39.9158 -103.8747 106° East 390 723 16.000 1.597 Climbing Denver Center
Sat 12:43:20 39.8856 -103.7325 105° East 399 739 17.600 1.500 Climbing Denver Center
Sat 12:44:22 39.8994 -103.5917 83° East 398 737 19.100 1.452 Climbing Denver Center
Sat 12:45:24 39.9247 -103.4489 77° East 405 750 20.600 1.500 Climbing Denver Center
Sat 12:46:26 39.9494 -103.3022 78° East 414 766 22.200 1.694 Climbing Denver Center
Sat 12:47:28 39.9789 -103.1253 78° East 417 772 24.100 1.200 Climbing Denver Center
Sat 12:48:31 40.0044 -102.9742 78° East 426 789 24.700 720 Climbing Denver Center
Sat 12:49:33 40.0294 -102.8133 78° East 449 832 25.600 871 Climbing Denver Center
Sat 12:50:35 40.0558 -102.6594 77° East 453 838 26.500 1.016 Climbing Denver Center
Sat 12:51:37 40.0844 -102.4792 78° East 455 843 27.700 919 Climbing Denver Center
Sat 12:52:39 40.1100 -102.3236 78° East 456 845 28.400 629 Climbing Denver Center
Sat 12:53:41 40.1386 -102.1392 78° East 463 858 29.000 290 Climbing Denver Center
Sat 12:54:43 40.1639 -101.9753 79° East 477 884 29.000  Level Denver Center
Sat 12:55:45 40.1942 -101.7814 78° East 488 904 29.000 581 Level Denver Center
Sat 12:56:47 40.2189 -101.6167 79° East 485 898 30.200 968 Climbing Denver Center
Sat 12:57:49 40.2483 -101.4303 78° East 472 874 31.000 387 Climbing Denver Center
Sat 12:58:51 40.2722 -101.2650 79° East 483 895 31.000  Level Denver Center
Sat 12:59:53 40.3011 -101.0722 79° East 486 900 31.000  Level Denver Center
Sat 13:00:55 40.3214 -100.9322 79° East 490 908 31.000  Level Denver Center
Sat 13:01:57 40.3539 -100.7092 79° East 493 912 31.000  Level Denver Center
Sat 13:02:59 40.3775 -100.5411 79° East 494 914 31.000  Level Denver Center
Sat 13:04:13 40.4053 -100.3458 79° East 492 911 31.000  Level Denver Center
Sat 13:05:16 40.4367 -100.1211 80° East 493 912 31.000  Level Denver Center
Sat 13:06:18 40.4597 -99.9539 80° East 491 909 31.000  Level Denver Center
Sat 13:07:20 40.4853 -99.7678 80° East 493 912 31.000  Level Denver Center
Sat 13:08:22 40.5078 -99.5897 81° East 495 917 31.000  Level Denver Center
Sat 13:09:24 40.5325 -99.4128 80° East 495 917 31.000  Level Denver Center
Sat 13:10:26 40.5553 -99.2350 80° East 495 917 31.000  Level Denver Center
Sat 13:11:26 40.5828 -99.0219 80° East 498 922 31.000 -541 Level Minneapolis Center
Sat 13:12:28 40.6056 -98.8453 80° East 496 919 29.900 -1.103 Descending Minneapolis Center
Sat 13:13:42 40.6269 -98.6697 81° East 492 911 28.500 -1.500 Descending Minneapolis Center
Sat 13:14:44 40.6539 -98.4553 81° East 496 919 26.500 -1.935 Descending Minneapolis Center
Sat 13:15:46 40.6764 -98.2753 81° East 501 929 24.500 -1.210 Descending Minneapolis Center
Sat 13:16:48 40.6972 -98.1019 81° East 490 908 24.000 -619 Descending Minneapolis Center
Sat 13:17:52 40.7214 -97.8964 81° East 478 885 23.200 -2.000 Descending Minneapolis Center
Sat 13:18:54 40.7411 -97.7303 81° East 467 864 19.800 -3.652 Descending Minneapolis Center
Sat 13:19:01 40.7208 -97.6892 123° Southeast 447 827 19.000 -3.480 Descending Minneapolis Center
Sat 13:19:44 40.7344 -97.5892 80° East 426 789 16.900 -2.836 Descending Minneapolis Center
Sat 13:19:56 40.7597 -97.5761 21° North 440 814 16.400 -3.556 Descending Minneapolis Center
Sat 13:20:38 40.7522 -97.4528 95° East 412 763 13.700 -3.290 Descending Minneapolis Center
Sat 13:20:58 40.7789 -97.4278 35° Northeast 418 774 13.000 -2.361 Descending Minneapolis Center
Sat 13:21:39 40.7933 -97.3200 80° East 386 715 11.300 -2.032 Descending Minneapolis Center
Sat 13:22:00 40.8214 -97.2875 41° Northeast 390 723 10.900 -1.315 Descending Minneapolis Center
Sat 13:22:52 40.8356 -97.1783 80° East 312 578 9.700 -1.258 Descending Minneapolis Center
Sat 13:23:02 40.8547 -97.1767 North 341 631 9.600 -2.455 Descending Minneapolis Center
Sat 13:23:58 40.8692 -97.0678 80° East 272 504 7.000 -2.226 Descending Minneapolis Center
Sat 13:24:04 40.8811 -97.0797 323° Northwest 295 546 7.300 -1.875 Climbing Minneapolis Center
Sat 13:25:02 40.8956 -96.9797 79° East 256 475 5.000 -2.419 Descending Minneapolis Center
Sat 13:25:06 40.9133 -96.9742 13° North 264 489 4.800 -1.182 Descending Minneapolis Center
Sat 13:26:08 40.9250 -96.9003 78° East 237 439 3.700 -947 Descending Minneapolis Center
Sat 13:27:00 40.9086 -96.8408 110° East 169 312 3.000 -774 Descending Minneapolis Center
Sat 13:27:10 40.9194 -96.8372 14° North 196 364 2.900 -885 Descending Minneapolis Center
Sat 13:28:01 40.8869 -96.7961 136° Southeast 140 259 2.100 -871 Descending Minneapolis Center
Sat 13:28:12 40.8967 -96.7983 350° North 160 296 2.000 -329 Descending Minneapolis Center
Sat 13:29:14 40.8692 -96.7697 142° Southeast 155 286 1.700 -290 Descending Minneapolis Center

Login

Don't have an account? Register now (free) for customized features, flight alerts, and more!